sensor_id;sensor_type;location;lat;lon;timestamp;temperature;humidity
29203;DHT22;16245;51.170;4.884;2023-03-13T00:01:46;11.80;99.90
29203;DHT22;16245;51.170;4.884;2023-03-13T00:04:13;11.70;99.90
29203;DHT22;16245;51.170;4.884;2023-03-13T00:06:39;11.70;99.90
29203;DHT22;16245;51.170;4.884;2023-03-13T00:09:08;11.70;99.90
29203;DHT22;16245;51.170;4.884;2023-03-13T00:11:34;11.60;99.90
29203;DHT22;16245;51.170;4.884;2023-03-13T00:14:02;11.60;99.90
29203;DHT22;16245;51.170;4.884;2023-03-13T00:16:28;11.50;99.90
29203;DHT22;16245;51.170;4.884;2023-03-13T00:18:55;11.50;99.90
29203;DHT22;16245;51.170;4.884;2023-03-13T00:21:23;11.50;99.90
29203;DHT22;16245;51.170;4.884;2023-03-13T00:23:50;11.50;99.90
29203;DHT22;16245;51.170;4.884;2023-03-13T00:26:21;11.50;99.90
29203;DHT22;16245;51.170;4.884;2023-03-13T00:28:48;11.50;99.90
29203;DHT22;16245;51.170;4.884;2023-03-13T00:31:16;11.50;99.90
29203;DHT22;16245;51.170;4.884;2023-03-13T00:33:43;11.50;99.90
29203;DHT22;16245;51.170;4.884;2023-03-13T00:36:15;11.50;99.90
29203;DHT22;16245;51.170;4.884;2023-03-13T00:38:41;11.50;99.90
29203;DHT22;16245;51.170;4.884;2023-03-13T00:41:09;11.50;99.90
29203;DHT22;16245;51.170;4.884;2023-03-13T00:43:39;11.50;99.90
29203;DHT22;16245;51.170;4.884;2023-03-13T00:46:06;11.50;99.90
29203;DHT22;16245;51.170;4.884;2023-03-13T00:48:32;11.40;99.90
29203;DHT22;16245;51.170;4.884;2023-03-13T00:50:58;11.40;99.90
29203;DHT22;16245;51.170;4.884;2023-03-13T00:53:24;11.50;99.90
29203;DHT22;16245;51.170;4.884;2023-03-13T00:55:54;11.50;99.90
29203;DHT22;16245;51.170;4.884;2023-03-13T00:58:20;11.50;99.90
29203;DHT22;16245;51.170;4.884;2023-03-13T01:00:46;11.50;99.90
29203;DHT22;16245;51.170;4.884;2023-03-13T01:03:12;11.60;99.90
29203;DHT22;16245;51.170;4.884;2023-03-13T01:05:37;11.60;99.90
29203;DHT22;16245;51.170;4.884;2023-03-13T01:08:03;11.60;99.90
29203;DHT22;16245;51.170;4.884;2023-03-13T01:10:29;11.60;99.90
29203;DHT22;16245;51.170;4.884;2023-03-13T01:12:54;11.60;99.90
29203;DHT22;16245;51.170;4.884;2023-03-13T01:15:20;11.70;99.90
29203;DHT22;16245;51.170;4.884;2023-03-13T01:17:45;11.60;99.90
29203;DHT22;16245;51.170;4.884;2023-03-13T01:20:11;11.60;99.90
29203;DHT22;16245;51.170;4.884;2023-03-13T01:22:37;11.70;99.90
29203;DHT22;16245;51.170;4.884;2023-03-13T01:25:04;11.70;99.90
29203;DHT22;16245;51.170;4.884;2023-03-13T01:27:30;11.70;99.90
29203;DHT22;16245;51.170;4.884;2023-03-13T01:29:56;11.80;99.90
29203;DHT22;16245;51.170;4.884;2023-03-13T01:32:21;11.80;99.90
29203;DHT22;16245;51.170;4.884;2023-03-13T01:34:47;11.80;99.90
29203;DHT22;16245;51.170;4.884;2023-03-13T01:37:13;11.70;99.90
29203;DHT22;16245;51.170;4.884;2023-03-13T01:39:39;11.80;99.90
29203;DHT22;16245;51.170;4.884;2023-03-13T01:42:04;11.80;99.90
29203;DHT22;16245;51.170;4.884;2023-03-13T01:44:49;11.80;99.90
29203;DHT22;16245;51.170;4.884;2023-03-13T01:47:15;11.70;99.90
29203;DHT22;16245;51.170;4.884;2023-03-13T01:49:41;11.80;99.90
29203;DHT22;16245;51.170;4.884;2023-03-13T01:52:17;11.80;99.90
29203;DHT22;16245;51.170;4.884;2023-03-13T01:54:52;11.80;99.90
29203;DHT22;16245;51.170;4.884;2023-03-13T01:57:36;11.90;99.90
29203;DHT22;16245;51.170;4.884;2023-03-13T02:00:13;12.00;99.90
29203;DHT22;16245;51.170;4.884;2023-03-13T02:02:45;12.00;99.90
29203;DHT22;16245;51.170;4.884;2023-03-13T02:05:12;12.00;99.90
29203;DHT22;16245;51.170;4.884;2023-03-13T02:07:43;12.00;99.90
29203;DHT22;16245;51.170;4.884;2023-03-13T02:10:11;11.90;99.90
29203;DHT22;16245;51.170;4.884;2023-03-13T02:12:39;11.90;99.90
29203;DHT22;16245;51.170;4.884;2023-03-13T02:15:12;12.00;99.90
29203;DHT22;16245;51.170;4.884;2023-03-13T02:17:39;12.00;99.90
29203;DHT22;16245;51.170;4.884;2023-03-13T02:20:06;12.00;99.90
29203;DHT22;16245;51.170;4.884;2023-03-13T02:22:46;12.10;99.90
29203;DHT22;16245;51.170;4.884;2023-03-13T02:30:19;12.30;99.90
29203;DHT22;16245;51.170;4.884;2023-03-13T02:32:45;12.30;99.90
29203;DHT22;16245;51.170;4.884;2023-03-13T02:35:14;12.20;99.90
29203;DHT22;16245;51.170;4.884;2023-03-13T02:37:41;12.20;99.90
29203;DHT22;16245;51.170;4.884;2023-03-13T02:40:11;12.20;99.90
29203;DHT22;16245;51.170;4.884;2023-03-13T02:42:40;12.20;99.90
29203;DHT22;16245;51.170;4.884;2023-03-13T02:45:07;12.30;99.90
29203;DHT22;16245;51.170;4.884;2023-03-13T02:47:33;12.30;99.90
29203;DHT22;16245;51.170;4.884;2023-03-13T02:49:59;12.30;99.90
29203;DHT22;16245;51.170;4.884;2023-03-13T02:52:34;12.30;99.90
29203;DHT22;16245;51.170;4.884;2023-03-13T02:55:11;12.40;99.90
29203;DHT22;16245;51.170;4.884;2023-03-13T02:57:39;12.40;99.90
29203;DHT22;16245;51.170;4.884;2023-03-13T03:00:06;12.40;99.90
29203;DHT22;16245;51.170;4.884;2023-03-13T03:02:32;12.40;99.90
29203;DHT22;16245;51.170;4.884;2023-03-13T03:04:57;12.50;99.90
29203;DHT22;16245;51.170;4.884;2023-03-13T03:07:23;12.50;99.90
29203;DHT22;16245;51.170;4.884;2023-03-13T03:09:49;12.70;99.90
29203;DHT22;16245;51.170;4.884;2023-03-13T03:12:14;12.70;99.90
29203;DHT22;16245;51.170;4.884;2023-03-13T03:14:49;12.70;99.90
29203;DHT22;16245;51.170;4.884;2023-03-13T03:17:15;12.80;99.90
29203;DHT22;16245;51.170;4.884;2023-03-13T03:19:40;12.80;99.90
29203;DHT22;16245;51.170;4.884;2023-03-13T03:22:06;12.80;99.90
29203;DHT22;16245;51.170;4.884;2023-03-13T03:24:35;12.90;99.90
29203;DHT22;16245;51.170;4.884;2023-03-13T03:27:00;13.00;99.90
29203;DHT22;16245;51.170;4.884;2023-03-13T03:29:26;13.00;99.90
29203;DHT22;16245;51.170;4.884;2023-03-13T03:31:52;13.00;99.90
29203;DHT22;16245;51.170;4.884;2023-03-13T03:34:23;13.10;99.90
29203;DHT22;16245;51.170;4.884;2023-03-13T03:36:49;13.20;99.90
29203;DHT22;16245;51.170;4.884;2023-03-13T03:39:15;13.20;99.90
29203;DHT22;16245;51.170;4.884;2023-03-13T03:41:40;13.30;99.90
29203;DHT22;16245;51.170;4.884;2023-03-13T03:44:06;13.30;99.90
29203;DHT22;16245;51.170;4.884;2023-03-13T03:46:32;13.30;99.90
29203;DHT22;16245;51.170;4.884;2023-03-13T03:48:57;13.30;99.90
29203;DHT22;16245;51.170;4.884;2023-03-13T03:51:23;13.40;99.90
29203;DHT22;16245;51.170;4.884;2023-03-13T03:53:49;13.40;99.90
29203;DHT22;16245;51.170;4.884;2023-03-13T03:56:14;13.40;99.90
29203;DHT22;16245;51.170;4.884;2023-03-13T03:58:43;13.50;99.90
29203;DHT22;16245;51.170;4.884;2023-03-13T04:01:08;13.50;99.90
29203;DHT22;16245;51.170;4.884;2023-03-13T04:03:34;13.60;99.90
29203;DHT22;16245;51.170;4.884;2023-03-13T04:06:00;13.60;99.90
29203;DHT22;16245;51.170;4.884;2023-03-13T04:08:28;13.60;99.90
29203;DHT22;16245;51.170;4.884;2023-03-13T04:10:54;13.50;99.90
29203;DHT22;16245;51.170;4.884;2023-03-13T04:13:20;13.60;99.90
29203;DHT22;16245;51.170;4.884;2023-03-13T04:15:45;13.60;99.90
29203;DHT22;16245;51.170;4.884;2023-03-13T04:18:13;13.70;99.90
29203;DHT22;16245;51.170;4.884;2023-03-13T04:20:38;13.70;99.90
29203;DHT22;16245;51.170;4.884;2023-03-13T04:23:04;13.60;99.90
29203;DHT22;16245;51.170;4.884;2023-03-13T04:25:30;13.60;99.90
29203;DHT22;16245;51.170;4.884;2023-03-13T04:27:55;13.60;99.90
29203;DHT22;16245;51.170;4.884;2023-03-13T04:30:21;13.70;99.90
29203;DHT22;16245;51.170;4.884;2023-03-13T04:32:47;13.70;99.90
29203;DHT22;16245;51.170;4.884;2023-03-13T04:35:12;13.70;99.90
29203;DHT22;16245;51.170;4.884;2023-03-13T04:37:38;13.80;99.90
29203;DHT22;16245;51.170;4.884;2023-03-13T04:40:04;13.80;99.90
29203;DHT22;16245;51.170;4.884;2023-03-13T04:42:30;13.80;99.90
29203;DHT22;16245;51.170;4.884;2023-03-13T04:44:56;13.80;99.90
29203;DHT22;16245;51.170;4.884;2023-03-13T04:47:21;13.80;99.90
29203;DHT22;16245;51.170;4.884;2023-03-13T04:49:47;13.80;99.90
29203;DHT22;16245;51.170;4.884;2023-03-13T04:52:13;13.80;99.90
29203;DHT22;16245;51.170;4.884;2023-03-13T04:54:38;13.80;99.90
29203;DHT22;16245;51.170;4.884;2023-03-13T04:57:04;13.80;99.90
29203;DHT22;16245;51.170;4.884;2023-03-13T04:59:30;13.80;99.90
29203;DHT22;16245;51.170;4.884;2023-03-13T05:01:56;13.80;99.90
29203;DHT22;16245;51.170;4.884;2023-03-13T05:04:21;13.90;99.90
29203;DHT22;16245;51.170;4.884;2023-03-13T05:06:47;13.90;99.90
29203;DHT22;16245;51.170;4.884;2023-03-13T05:09:13;13.90;99.90
29203;DHT22;16245;51.170;4.884;2023-03-13T05:11:38;13.80;99.90
29203;DHT22;16245;51.170;4.884;2023-03-13T05:14:06;13.80;99.90
29203;DHT22;16245;51.170;4.884;2023-03-13T05:16:35;13.80;99.90
29203;DHT22;16245;51.170;4.884;2023-03-13T05:19:01;13.80;99.90
29203;DHT22;16245;51.170;4.884;2023-03-13T05:21:26;13.80;99.90
29203;DHT22;16245;51.170;4.884;2023-03-13T05:23:52;13.80;99.90
29203;DHT22;16245;51.170;4.884;2023-03-13T05:26:18;13.90;99.90
29203;DHT22;16245;51.170;4.884;2023-03-13T05:28:43;13.90;99.90
29203;DHT22;16245;51.170;4.884;2023-03-13T05:31:09;14.00;99.90
29203;DHT22;16245;51.170;4.884;2023-03-13T05:33:35;14.00;99.90
29203;DHT22;16245;51.170;4.884;2023-03-13T05:36:00;13.90;99.90
29203;DHT22;16245;51.170;4.884;2023-03-13T05:38:26;13.90;99.90
29203;DHT22;16245;51.170;4.884;2023-03-13T05:40:51;13.90;99.90
29203;DHT22;16245;51.170;4.884;2023-03-13T05:43:17;13.90;99.90
29203;DHT22;16245;51.170;4.884;2023-03-13T05:45:43;13.90;99.90
29203;DHT22;16245;51.170;4.884;2023-03-13T05:48:08;13.90;99.90
29203;DHT22;16245;51.170;4.884;2023-03-13T05:50:34;14.00;99.90
29203;DHT22;16245;51.170;4.884;2023-03-13T05:53:00;13.90;99.90
29203;DHT22;16245;51.170;4.884;2023-03-13T05:55:26;14.00;99.90
29203;DHT22;16245;51.170;4.884;2023-03-13T05:57:51;14.10;99.90
29203;DHT22;16245;51.170;4.884;2023-03-13T06:00:17;14.00;99.90
29203;DHT22;16245;51.170;4.884;2023-03-13T06:02:43;14.10;99.90
29203;DHT22;16245;51.170;4.884;2023-03-13T06:05:09;14.00;99.90
29203;DHT22;16245;51.170;4.884;2023-03-13T06:07:35;14.00;99.90
29203;DHT22;16245;51.170;4.884;2023-03-13T06:10:01;14.00;99.90
29203;DHT22;16245;51.170;4.884;2023-03-13T06:12:27;13.90;99.90
29203;DHT22;16245;51.170;4.884;2023-03-13T06:14:53;13.90;99.90
29203;DHT22;16245;51.170;4.884;2023-03-13T06:17:18;13.90;99.90
29203;DHT22;16245;51.170;4.884;2023-03-13T06:19:45;13.90;99.90
29203;DHT22;16245;51.170;4.884;2023-03-13T06:22:11;13.90;99.90
29203;DHT22;16245;51.170;4.884;2023-03-13T06:24:37;13.90;99.90
29203;DHT22;16245;51.170;4.884;2023-03-13T06:27:03;13.90;99.90
29203;DHT22;16245;51.170;4.884;2023-03-13T06:29:28;14.00;99.90
29203;DHT22;16245;51.170;4.884;2023-03-13T06:31:54;14.00;99.90
29203;DHT22;16245;51.170;4.884;2023-03-13T06:34:20;14.00;99.90
29203;DHT22;16245;51.170;4.884;2023-03-13T06:36:45;14.00;99.90
29203;DHT22;16245;51.170;4.884;2023-03-13T06:39:12;14.10;99.90
29203;DHT22;16245;51.170;4.884;2023-03-13T06:41:37;14.10;99.90
29203;DHT22;16245;51.170;4.884;2023-03-13T06:44:03;14.10;99.90
29203;DHT22;16245;51.170;4.884;2023-03-13T06:46:29;14.10;99.90
29203;DHT22;16245;51.170;4.884;2023-03-13T06:48:57;14.10;99.90
29203;DHT22;16245;51.170;4.884;2023-03-13T06:51:23;14.20;99.90
29203;DHT22;16245;51.170;4.884;2023-03-13T06:53:51;14.20;99.90
29203;DHT22;16245;51.170;4.884;2023-03-13T06:56:17;14.20;99.90
29203;DHT22;16245;51.170;4.884;2023-03-13T06:58:46;14.20;99.90
29203;DHT22;16245;51.170;4.884;2023-03-13T07:01:13;14.20;99.90
29203;DHT22;16245;51.170;4.884;2023-03-13T07:03:39;14.30;99.90
29203;DHT22;16245;51.170;4.884;2023-03-13T07:06:09;14.30;99.90
29203;DHT22;16245;51.170;4.884;2023-03-13T07:08:35;14.30;99.90
29203;DHT22;16245;51.170;4.884;2023-03-13T07:11:03;14.20;99.90
29203;DHT22;16245;51.170;4.884;2023-03-13T07:13:30;14.20;99.90
29203;DHT22;16245;51.170;4.884;2023-03-13T07:15:59;14.20;99.90
29203;DHT22;16245;51.170;4.884;2023-03-13T07:18:25;14.30;99.90
29203;DHT22;16245;51.170;4.884;2023-03-13T07:20:52;14.30;99.90
29203;DHT22;16245;51.170;4.884;2023-03-13T07:23:19;14.30;99.90
29203;DHT22;16245;51.170;4.884;2023-03-13T07:25:52;14.30;99.90
29203;DHT22;16245;51.170;4.884;2023-03-13T07:28:18;14.30;99.90
29203;DHT22;16245;51.170;4.884;2023-03-13T07:30:44;14.30;99.90
29203;DHT22;16245;51.170;4.884;2023-03-13T07:33:10;14.30;99.90
29203;DHT22;16245;51.170;4.884;2023-03-13T07:35:35;14.30;99.90
29203;DHT22;16245;51.170;4.884;2023-03-13T07:38:01;14.30;99.90
29203;DHT22;16245;51.170;4.884;2023-03-13T07:40:27;14.30;99.90
29203;DHT22;16245;51.170;4.884;2023-03-13T07:42:52;14.30;99.90
29203;DHT22;16245;51.170;4.884;2023-03-13T07:45:18;14.30;99.90
29203;DHT22;16245;51.170;4.884;2023-03-13T07:47:44;14.40;99.90
29203;DHT22;16245;51.170;4.884;2023-03-13T07:50:10;14.40;99.90
29203;DHT22;16245;51.170;4.884;2023-03-13T07:52:35;14.40;99.90
29203;DHT22;16245;51.170;4.884;2023-03-13T07:55:01;14.40;99.90
29203;DHT22;16245;51.170;4.884;2023-03-13T07:57:27;14.50;99.90
29203;DHT22;16245;51.170;4.884;2023-03-13T07:59:52;14.50;99.90
29203;DHT22;16245;51.170;4.884;2023-03-13T08:02:18;14.60;99.90
29203;DHT22;16245;51.170;4.884;2023-03-13T08:04:44;14.80;99.90
29203;DHT22;16245;51.170;4.884;2023-03-13T08:07:10;14.80;99.90
29203;DHT22;16245;51.170;4.884;2023-03-13T08:09:36;14.70;99.90
29203;DHT22;16245;51.170;4.884;2023-03-13T08:12:02;14.60;99.90
29203;DHT22;16245;51.170;4.884;2023-03-13T08:14:28;14.60;99.90
29203;DHT22;16245;51.170;4.884;2023-03-13T08:16:53;14.60;99.90
29203;DHT22;16245;51.170;4.884;2023-03-13T08:19:19;14.50;99.90
29203;DHT22;16245;51.170;4.884;2023-03-13T08:21:45;14.60;99.90
29203;DHT22;16245;51.170;4.884;2023-03-13T08:24:11;14.60;99.90
29203;DHT22;16245;51.170;4.884;2023-03-13T08:26:38;14.60;99.90
29203;DHT22;16245;51.170;4.884;2023-03-13T08:29:08;14.70;99.90
29203;DHT22;16245;51.170;4.884;2023-03-13T08:31:41;14.80;99.90
29203;DHT22;16245;51.170;4.884;2023-03-13T08:34:07;14.80;99.90
29203;DHT22;16245;51.170;4.884;2023-03-13T08:36:35;14.70;99.90
29203;DHT22;16245;51.170;4.884;2023-03-13T08:39:08;14.70;99.90
29203;DHT22;16245;51.170;4.884;2023-03-13T08:41:36;14.70;99.90
29203;DHT22;16245;51.170;4.884;2023-03-13T08:44:03;14.60;99.90
29203;DHT22;16245;51.170;4.884;2023-03-13T08:46:31;14.70;99.90
29203;DHT22;16245;51.170;4.884;2023-03-13T08:48:57;14.80;99.90
29203;DHT22;16245;51.170;4.884;2023-03-13T08:51:25;14.80;99.90
29203;DHT22;16245;51.170;4.884;2023-03-13T08:53:52;14.70;99.90
29203;DHT22;16245;51.170;4.884;2023-03-13T08:56:22;14.80;99.90
29203;DHT22;16245;51.170;4.884;2023-03-13T08:58:52;14.90;99.90
29203;DHT22;16245;51.170;4.884;2023-03-13T09:01:18;14.90;99.90
29203;DHT22;16245;51.170;4.884;2023-03-13T09:03:45;15.00;99.90
29203;DHT22;16245;51.170;4.884;2023-03-13T09:06:11;14.90;99.90
29203;DHT22;16245;51.170;4.884;2023-03-13T09:08:37;14.90;99.90
29203;DHT22;16245;51.170;4.884;2023-03-13T09:11:14;15.00;99.90
29203;DHT22;16245;51.170;4.884;2023-03-13T09:13:43;15.10;99.90
29203;DHT22;16245;51.170;4.884;2023-03-13T09:16:20;15.40;99.90
29203;DHT22;16245;51.170;4.884;2023-03-13T09:18:46;15.50;99.90
29203;DHT22;16245;51.170;4.884;2023-03-13T09:21:15;15.70;99.90
29203;DHT22;16245;51.170;4.884;2023-03-13T09:23:41;16.40;99.90
29203;DHT22;16245;51.170;4.884;2023-03-13T09:26:07;17.00;99.90
29203;DHT22;16245;51.170;4.884;2023-03-13T09:28:34;17.10;99.90
29203;DHT22;16245;51.170;4.884;2023-03-13T09:31:12;17.10;99.90
29203;DHT22;16245;51.170;4.884;2023-03-13T09:33:39;17.20;99.90
29203;DHT22;16245;51.170;4.884;2023-03-13T09:36:06;16.70;99.90
29203;DHT22;16245;51.170;4.884;2023-03-13T09:38:35;16.40;99.90
29203;DHT22;16245;51.170;4.884;2023-03-13T09:46:44;15.90;99.90
29203;DHT22;16245;51.170;4.884;2023-03-13T09:51:52;17.20;99.90
29203;DHT22;16245;51.170;4.884;2023-03-13T09:56:58;16.70;99.90
29203;DHT22;16245;51.170;4.884;2023-03-13T09:59:28;16.40;99.90
29203;DHT22;16245;51.170;4.884;2023-03-13T10:01:58;16.20;99.90
29203;DHT22;16245;51.170;4.884;2023-03-13T10:05:13;16.10;99.90
29203;DHT22;16245;51.170;4.884;2023-03-13T10:07:19;16.50;99.90
29203;DHT22;16245;51.170;4.884;2023-03-13T10:09:45;16.70;99.90
29203;DHT22;16245;51.170;4.884;2023-03-13T10:12:17;16.70;99.90
29203;DHT22;16245;51.170;4.884;2023-03-13T10:14:52;16.80;99.90
29203;DHT22;16245;51.170;4.884;2023-03-13T10:17:34;17.00;99.90
29203;DHT22;16245;51.170;4.884;2023-03-13T10:20:24;17.40;99.90
29203;DHT22;16245;51.170;4.884;2023-03-13T10:23:15;16.90;99.90
29203;DHT22;16245;51.170;4.884;2023-03-13T10:25:42;16.60;99.90
29203;DHT22;16245;51.170;4.884;2023-03-13T10:28:16;16.50;99.90
29203;DHT22;16245;51.170;4.884;2023-03-13T10:31:16;16.50;99.90
29203;DHT22;16245;51.170;4.884;2023-03-13T10:33:46;16.80;99.90
29203;DHT22;16245;51.170;4.884;2023-03-13T10:36:12;17.00;99.90
29203;DHT22;16245;51.170;4.884;2023-03-13T10:38:48;17.20;99.90
29203;DHT22;16245;51.170;4.884;2023-03-13T10:43:54;17.10;99.90
29203;DHT22;16245;51.170;4.884;2023-03-13T10:46:28;17.00;99.90
29203;DHT22;16245;51.170;4.884;2023-03-13T10:48:56;16.70;99.90
29203;DHT22;16245;51.170;4.884;2023-03-13T10:51:38;16.70;99.90
29203;DHT22;16245;51.170;4.884;2023-03-13T10:54:34;16.70;99.90
29203;DHT22;16245;51.170;4.884;2023-03-13T10:59:51;17.20;99.90
29203;DHT22;16245;51.170;4.884;2023-03-13T11:02:22;17.20;99.90
29203;DHT22;16245;51.170;4.884;2023-03-13T11:04:49;17.30;99.90
29203;DHT22;16245;51.170;4.884;2023-03-13T11:07:29;17.00;99.90
29203;DHT22;16245;51.170;4.884;2023-03-13T11:10:02;17.00;99.90
29203;DHT22;16245;51.170;4.884;2023-03-13T11:12:32;16.90;99.90
29203;DHT22;16245;51.170;4.884;2023-03-13T11:15:00;16.80;99.90
29203;DHT22;16245;51.170;4.884;2023-03-13T11:17:38;17.00;99.90
29203;DHT22;16245;51.170;4.884;2023-03-13T11:20:17;17.30;99.90
29203;DHT22;16245;51.170;4.884;2023-03-13T11:25:13;17.10;99.90
29203;DHT22;16245;51.170;4.884;2023-03-13T11:38:38;16.90;99.90
29203;DHT22;16245;51.170;4.884;2023-03-13T11:46:52;16.70;99.90
29203;DHT22;16245;51.170;4.884;2023-03-13T11:54:39;17.10;99.90
29203;DHT22;16245;51.170;4.884;2023-03-13T11:57:29;16.90;99.90
29203;DHT22;16245;51.170;4.884;2023-03-13T12:00:16;16.90;99.90
29203;DHT22;16245;51.170;4.884;2023-03-13T12:05:17;16.90;99.90
29203;DHT22;16245;51.170;4.884;2023-03-13T12:07:59;16.80;99.90
29203;DHT22;16245;51.170;4.884;2023-03-13T12:10:38;16.90;99.90
29203;DHT22;16245;51.170;4.884;2023-03-13T12:13:19;16.90;99.90
29203;DHT22;16245;51.170;4.884;2023-03-13T12:15:51;17.00;99.90
29203;DHT22;16245;51.170;4.884;2023-03-13T12:18:39;17.10;99.90
29203;DHT22;16245;51.170;4.884;2023-03-13T12:21:17;17.50;99.90
29203;DHT22;16245;51.170;4.884;2023-03-13T12:26:41;17.70;99.90
29203;DHT22;16245;51.170;4.884;2023-03-13T12:32:28;17.50;99.90
29203;DHT22;16245;51.170;4.884;2023-03-13T12:35:25;17.60;99.90
29203;DHT22;16245;51.170;4.884;2023-03-13T12:38:18;17.40;99.90
29203;DHT22;16245;51.170;4.884;2023-03-13T12:43:33;17.30;99.90
29203;DHT22;16245;51.170;4.884;2023-03-13T12:51:14;17.70;99.90
29203;DHT22;16245;51.170;4.884;2023-03-13T12:59:39;17.60;99.90
29203;DHT22;16245;51.170;4.884;2023-03-13T13:02:32;17.60;99.90
29203;DHT22;16245;51.170;4.884;2023-03-13T13:04:59;17.50;99.90
29203;DHT22;16245;51.170;4.884;2023-03-13T13:07:36;17.40;99.90
29203;DHT22;16245;51.170;4.884;2023-03-13T13:12:35;17.30;99.90
29203;DHT22;16245;51.170;4.884;2023-03-13T13:20:46;17.60;99.90
29203;DHT22;16245;51.170;4.884;2023-03-13T13:23:39;17.50;99.90
29203;DHT22;16245;51.170;4.884;2023-03-13T13:26:44;17.40;99.90
29203;DHT22;16245;51.170;4.884;2023-03-13T13:39:51;17.30;99.90
29203;DHT22;16245;51.170;4.884;2023-03-13T13:47:38;17.50;99.90
29203;DHT22;16245;51.170;4.884;2023-03-13T13:52:49;17.70;99.90
29203;DHT22;16245;51.170;4.884;2023-03-13T13:58:13;17.80;99.90
29203;DHT22;16245;51.170;4.884;2023-03-13T14:03:21;17.60;99.90
29203;DHT22;16245;51.170;4.884;2023-03-13T14:05:59;17.70;99.90
29203;DHT22;16245;51.170;4.884;2023-03-13T14:08:30;17.80;99.90
29203;DHT22;16245;51.170;4.884;2023-03-13T14:13:41;17.90;99.90
29203;DHT22;16245;51.170;4.884;2023-03-13T14:16:26;17.90;99.90
29203;DHT22;16245;51.170;4.884;2023-03-13T14:18:52;17.80;99.90
29203;DHT22;16245;51.170;4.884;2023-03-13T14:21:22;18.00;99.90
29203;DHT22;16245;51.170;4.884;2023-03-13T14:23:48;17.80;99.90
29203;DHT22;16245;51.170;4.884;2023-03-13T14:26:23;17.90;99.90
29203;DHT22;16245;51.170;4.884;2023-03-13T14:28:59;18.10;99.90
29203;DHT22;16245;51.170;4.884;2023-03-13T14:31:31;18.10;99.90
29203;DHT22;16245;51.170;4.884;2023-03-13T14:33:59;17.90;99.90
29203;DHT22;16245;51.170;4.884;2023-03-13T14:36:26;17.80;99.90
29203;DHT22;16245;51.170;4.884;2023-03-13T14:38:59;17.80;99.90
29203;DHT22;16245;51.170;4.884;2023-03-13T14:41:36;17.70;99.90
29203;DHT22;16245;51.170;4.884;2023-03-13T14:44:12;17.60;99.90
29203;DHT22;16245;51.170;4.884;2023-03-13T14:46:40;17.40;99.90
29203;DHT22;16245;51.170;4.884;2023-03-13T14:49:17;17.50;99.90
29203;DHT22;16245;51.170;4.884;2023-03-13T14:51:45;17.60;99.90
29203;DHT22;16245;51.170;4.884;2023-03-13T14:54:25;17.80;99.90
29203;DHT22;16245;51.170;4.884;2023-03-13T14:59:34;18.00;99.90
29203;DHT22;16245;51.170;4.884;2023-03-13T15:02:02;18.00;99.90
29203;DHT22;16245;51.170;4.884;2023-03-13T15:05:01;18.00;99.90
29203;DHT22;16245;51.170;4.884;2023-03-13T15:07:54;17.90;99.90
29203;DHT22;16245;51.170;4.884;2023-03-13T15:10:25;17.80;99.90
29203;DHT22;16245;51.170;4.884;2023-03-13T15:12:52;17.80;99.90
29203;DHT22;16245;51.170;4.884;2023-03-13T15:15:18;18.00;99.90
29203;DHT22;16245;51.170;4.884;2023-03-13T15:17:44;17.90;99.90
29203;DHT22;16245;51.170;4.884;2023-03-13T15:20:12;18.00;99.90
29203;DHT22;16245;51.170;4.884;2023-03-13T15:22:41;18.10;99.90
29203;DHT22;16245;51.170;4.884;2023-03-13T15:25:22;17.90;99.90
29203;DHT22;16245;51.170;4.884;2023-03-13T15:27:48;18.00;99.90
29203;DHT22;16245;51.170;4.884;2023-03-13T15:30:19;17.90;99.90
29203;DHT22;16245;51.170;4.884;2023-03-13T15:32:47;17.90;99.90
29203;DHT22;16245;51.170;4.884;2023-03-13T15:35:29;17.90;99.90
29203;DHT22;16245;51.170;4.884;2023-03-13T15:37:57;17.90;99.90
29203;DHT22;16245;51.170;4.884;2023-03-13T15:40:23;17.80;99.90
29203;DHT22;16245;51.170;4.884;2023-03-13T15:42:50;17.80;99.90
29203;DHT22;16245;51.170;4.884;2023-03-13T15:45:16;17.70;99.90
29203;DHT22;16245;51.170;4.884;2023-03-13T15:47:42;17.70;99.90
29203;DHT22;16245;51.170;4.884;2023-03-13T15:50:19;17.70;99.90
29203;DHT22;16245;51.170;4.884;2023-03-13T15:52:45;17.70;99.90
29203;DHT22;16245;51.170;4.884;2023-03-13T15:55:11;17.70;99.90
29203;DHT22;16245;51.170;4.884;2023-03-13T15:57:43;17.70;99.90
29203;DHT22;16245;51.170;4.884;2023-03-13T16:00:22;17.70;99.90
29203;DHT22;16245;51.170;4.884;2023-03-13T16:02:49;17.70;99.90
29203;DHT22;16245;51.170;4.884;2023-03-13T16:05:15;17.70;99.90
29203;DHT22;16245;51.170;4.884;2023-03-13T16:07:40;17.70;99.90
29203;DHT22;16245;51.170;4.884;2023-03-13T16:10:22;17.70;99.90
29203;DHT22;16245;51.170;4.884;2023-03-13T16:12:48;17.60;99.90
29203;DHT22;16245;51.170;4.884;2023-03-13T16:15:14;17.60;99.90
29203;DHT22;16245;51.170;4.884;2023-03-13T16:17:39;17.60;99.90
29203;DHT22;16245;51.170;4.884;2023-03-13T16:20:20;17.60;99.90
29203;DHT22;16245;51.170;4.884;2023-03-13T16:22:46;17.40;99.90
29203;DHT22;16245;51.170;4.884;2023-03-13T16:25:13;17.30;99.90
29203;DHT22;16245;51.170;4.884;2023-03-13T16:27:39;17.20;99.90
29203;DHT22;16245;51.170;4.884;2023-03-13T16:32:38;17.10;99.90
29203;DHT22;16245;51.170;4.884;2023-03-13T16:35:04;17.10;99.90
29203;DHT22;16245;51.170;4.884;2023-03-13T16:37:29;17.00;99.90
29203;DHT22;16245;51.170;4.884;2023-03-13T16:39:56;16.90;99.90
29203;DHT22;16245;51.170;4.884;2023-03-13T16:42:22;16.80;99.90
29203;DHT22;16245;51.170;4.884;2023-03-13T16:44:47;16.80;99.90
29203;DHT22;16245;51.170;4.884;2023-03-13T16:47:22;16.80;99.90
29203;DHT22;16245;51.170;4.884;2023-03-13T16:49:49;16.80;99.90
29203;DHT22;16245;51.170;4.884;2023-03-13T16:52:16;16.80;99.90
29203;DHT22;16245;51.170;4.884;2023-03-13T16:54:42;16.70;99.90
29203;DHT22;16245;51.170;4.884;2023-03-13T16:57:13;16.60;99.90
29203;DHT22;16245;51.170;4.884;2023-03-13T16:59:39;16.50;99.90
29203;DHT22;16245;51.170;4.884;2023-03-13T17:02:12;16.50;99.90
29203;DHT22;16245;51.170;4.884;2023-03-13T17:04:38;16.50;99.90
29203;DHT22;16245;51.170;4.884;2023-03-13T17:07:20;16.50;99.90
29203;DHT22;16245;51.170;4.884;2023-03-13T17:09:47;16.50;99.90
29203;DHT22;16245;51.170;4.884;2023-03-13T17:12:13;16.50;99.90
29203;DHT22;16245;51.170;4.884;2023-03-13T17:14:39;16.50;99.90
29203;DHT22;16245;51.170;4.884;2023-03-13T17:17:05;16.40;99.90
29203;DHT22;16245;51.170;4.884;2023-03-13T17:19:31;16.30;99.90
29203;DHT22;16245;51.170;4.884;2023-03-13T17:21:57;16.30;99.90
29203;DHT22;16245;51.170;4.884;2023-03-13T17:24:22;16.20;99.90
29203;DHT22;16245;51.170;4.884;2023-03-13T17:26:48;16.30;99.90
29203;DHT22;16245;51.170;4.884;2023-03-13T17:29:17;16.20;99.90
29203;DHT22;16245;51.170;4.884;2023-03-13T17:31:43;16.20;99.90